Time;durP1;ratioP1;P1;durP2;ratioP2;P2;SDS_P1;SDS_P2;PMS_P1;PMS_P2;Temp;Humidity;BMP_temperature;BMP_pressure;BME280_temperature;BME280_humidity;BME280_pressure;Samples;Min_cycle;Max_cycle;Signal;HPM_P1;HPM_P2
2021/08/21 00:01:15;;;;;;;13.65;7.20;;;15.20;99.90;;;;;;4999197;28;21200;-70
2021/08/21 00:03:42;;;;;;;14.13;6.82;;;15.20;99.90;;;;;;5002725;28;20536;-70
2021/08/21 00:06:08;;;;;;;16.38;7.35;;;15.20;99.90;;;;;;5000604;28;20039;-69
2021/08/21 00:08:33;;;;;;;14.20;7.13;;;15.20;99.90;;;;;;4985851;28;20037;-70
2021/08/21 00:10:59;;;;;;;22.85;6.80;;;15.20;99.90;;;;;;4981914;28;20434;-69
2021/08/21 00:13:25;;;;;;;13.13;6.32;;;15.10;99.90;;;;;;4982769;28;20042;-69
2021/08/21 00:15:52;;;;;;;13.85;6.22;;;15.10;99.90;;;;;;5002515;28;20045;-70
2021/08/21 00:18:18;;;;;;;16.33;6.70;;;15.10;99.90;;;;;;5000800;28;20034;-70
2021/08/21 00:20:43;;;;;;;12.35;6.50;;;15.10;99.90;;;;;;4999871;28;20092;-70
2021/08/21 00:23:09;;;;;;;12.45;6.40;;;15.00;99.90;;;;;;5000670;28;20055;-70
2021/08/21 00:25:34;;;;;;;12.32;6.78;;;15.00;99.90;;;;;;5003008;28;20033;-68
2021/08/21 00:28:00;;;;;;;11.82;6.72;;;15.00;99.90;;;;;;4982093;28;20126;-69
2021/08/21 00:30:25;;;;;;;14.10;7.10;;;15.00;99.90;;;;;;5002665;28;20042;-70
2021/08/21 00:32:51;;;;;;;12.68;6.40;;;14.90;99.90;;;;;;5000097;28;20430;-69
2021/08/21 00:35:17;;;;;;;13.35;6.45;;;15.00;99.90;;;;;;5001584;28;20041;-69
2021/08/21 00:37:43;;;;;;;15.45;7.28;;;15.00;99.90;;;;;;5000997;28;20060;-70
2021/08/21 00:40:09;;;;;;;13.05;7.25;;;14.90;99.90;;;;;;5001043;28;20037;-70
2021/08/21 00:42:35;;;;;;;14.73;6.80;;;14.90;99.90;;;;;;4981042;28;20034;-69
2021/08/21 00:45:03;;;;;;;11.80;6.53;;;14.90;99.90;;;;;;5002929;28;20077;-69
2021/08/21 00:47:28;;;;;;;12.65;6.63;;;14.90;99.90;;;;;;5002286;28;20124;-69
2021/08/21 00:49:55;;;;;;;12.13;6.85;;;14.90;99.90;;;;;;4999357;28;20110;-70
2021/08/21 00:52:24;;;;;;;11.00;6.03;;;14.90;99.90;;;;;;5004685;28;20122;-70
2021/08/21 00:54:51;;;;;;;11.85;6.15;;;14.90;99.90;;;;;;5002254;28;20034;-70
2021/08/21 00:57:18;;;;;;;12.27;6.47;;;15.00;99.90;;;;;;4999386;28;20374;-70
2021/08/21 00:59:45;;;;;;;11.90;6.03;;;15.00;99.90;;;;;;5001382;28;20426;-69
2021/08/21 01:02:13;;;;;;;12.20;6.13;;;15.00;99.90;;;;;;4983039;28;20052;-69
2021/08/21 01:04:40;;;;;;;13.27;6.13;;;15.00;99.90;;;;;;5003728;28;20038;-70
2021/08/21 01:07:24;;;;;;;13.05;6.40;;;15.00;99.90;;;;;;5000157;28;20038;-69
2021/08/21 01:09:50;;;;;;;12.80;6.72;;;15.00;99.90;;;;;;4999579;28;20038;-69
2021/08/21 01:12:21;;;;;;;13.55;6.50;;;15.10;99.90;;;;;;5001619;28;20022;-69
2021/08/21 01:14:48;;;;;;;14.75;7.68;;;15.10;99.90;;;;;;4984778;28;20116;-70
2021/08/21 01:17:15;;;;;;;16.02;7.97;;;15.10;99.90;;;;;;5000148;28;20531;-70
2021/08/21 01:19:42;;;;;;;17.08;7.53;;;15.20;99.90;;;;;;5000316;28;20390;-70
2021/08/21 01:22:15;;;;;;;15.38;7.18;;;15.30;99.90;;;;;;5002779;28;20027;-70
2021/08/21 01:24:45;;;;;;;13.30;6.75;;;15.40;99.90;;;;;;5002237;28;20026;-70
2021/08/21 01:27:22;;;;;;;14.88;6.53;;;15.40;99.90;;;;;;5000492;28;20037;-70
2021/08/21 01:29:49;;;;;;;14.25;7.22;;;15.50;99.90;;;;;;5001501;28;20038;-69
2021/08/21 01:32:15;;;;;;;14.52;6.82;;;15.50;99.90;;;;;;4999875;28;20033;-70
2021/08/21 01:34:41;;;;;;;16.10;7.22;;;15.50;99.90;;;;;;5000220;28;20026;-70
2021/08/21 01:37:07;;;;;;;12.82;7.18;;;15.50;99.90;;;;;;5000523;28;20398;-70
2021/08/21 01:39:32;;;;;;;15.55;6.40;;;15.40;99.90;;;;;;5002811;28;20030;-70
2021/08/21 01:41:59;;;;;;;14.80;6.85;;;15.50;99.90;;;;;;4984297;28;20044;-70
2021/08/21 01:44:24;;;;;;;16.50;7.07;;;15.40;99.90;;;;;;4998502;28;20042;-69
2021/08/21 01:46:50;;;;;;;16.83;7.00;;;15.40;99.90;;;;;;5001441;28;20026;-67
2021/08/21 01:49:18;;;;;;;14.73;7.55;;;15.40;99.90;;;;;;4999347;28;20046;-67
2021/08/21 01:51:46;;;;;;;16.60;8.25;;;15.40;99.90;;;;;;4985920;28;20048;-67
2021/08/21 01:54:13;;;;;;;15.88;7.63;;;15.40;99.90;;;;;;5000473;28;20034;-67
2021/08/21 01:56:50;;;;;;;12.20;6.45;;;15.40;99.90;;;;;;4982251;28;20069;-67
2021/08/21 01:59:24;;;;;;;13.48;7.45;;;15.40;99.90;;;;;;4999679;28;20046;-67
2021/08/21 02:01:51;;;;;;;15.32;7.38;;;15.30;99.90;;;;;;5001760;28;20057;-67
2021/08/21 02:04:18;;;;;;;14.43;7.32;;;15.30;99.90;;;;;;4981730;28;20054;-66
2021/08/21 02:06:44;;;;;;;18.27;7.35;;;15.30;99.90;;;;;;5002099;28;20037;-67
2021/08/21 02:09:12;;;;;;;16.75;7.25;;;15.30;99.90;;;;;;5000800;28;20437;-67
2021/08/21 02:11:37;;;;;;;16.15;8.13;;;15.20;99.90;;;;;;5000086;28;20547;-68
2021/08/21 02:14:04;;;;;;;15.60;6.80;;;15.20;99.90;;;;;;4999649;28;20113;-67
2021/08/21 02:16:29;;;;;;;18.65;8.30;;;15.10;99.90;;;;;;5001294;28;20647;-67
2021/08/21 02:18:55;;;;;;;20.02;9.52;;;15.10;99.90;;;;;;4998217;28;20046;-67
2021/08/21 02:21:22;;;;;;;17.48;8.25;;;15.20;99.90;;;;;;4983648;28;20034;-67
2021/08/21 02:23:48;;;;;;;22.90;8.65;;;15.20;99.90;;;;;;4997439;28;20116;-67
2021/08/21 02:26:14;;;;;;;20.17;8.65;;;15.20;99.90;;;;;;5000947;28;20490;-66
2021/08/21 02:28:39;;;;;;;18.77;7.75;;;15.20;99.90;;;;;;4982058;28;20052;-67
2021/08/21 02:31:05;;;;;;;18.55;8.25;;;15.20;99.90;;;;;;4998043;28;20539;-67
2021/08/21 02:33:31;;;;;;;22.75;8.70;;;15.20;99.90;;;;;;4999153;28;20449;-67
2021/08/21 02:35:57;;;;;;;18.90;8.48;;;15.20;99.90;;;;;;5000963;28;20088;-67
2021/08/21 02:38:23;;;;;;;20.25;9.70;;;15.20;99.90;;;;;;4998076;28;20061;-67
2021/08/21 02:40:49;;;;;;;16.50;8.32;;;15.20;99.90;;;;;;5007973;28;20038;-67
2021/08/21 02:43:15;;;;;;;17.48;8.07;;;15.20;99.90;;;;;;4998485;28;20074;-67
2021/08/21 02:45:40;;;;;;;20.15;8.52;;;15.20;99.90;;;;;;4999728;28;20035;-67
2021/08/21 02:48:06;;;;;;;21.10;8.52;;;15.20;99.90;;;;;;4981673;28;20042;-67
2021/08/21 02:50:32;;;;;;;20.45;8.50;;;15.20;99.90;;;;;;4998877;28;20091;-67
2021/08/21 02:52:57;;;;;;;19.48;7.97;;;15.10;99.90;;;;;;4984406;28;20089;-67
2021/08/21 02:55:23;;;;;;;21.58;9.45;;;15.10;99.90;;;;;;4980581;28;20046;-68
2021/08/21 02:57:48;;;;;;;23.75;7.93;;;15.10;99.90;;;;;;5000681;28;20640;-67
2021/08/21 03:00:14;;;;;;;19.70;8.98;;;15.10;99.90;;;;;;4997759;28;20474;-69
2021/08/21 03:02:41;;;;;;;18.33;8.32;;;15.00;99.90;;;;;;4981374;28;20034;-69
2021/08/21 03:05:07;;;;;;;21.80;8.98;;;15.00;99.90;;;;;;4980388;28;20406;-69
2021/08/21 03:07:32;;;;;;;21.48;8.25;;;14.90;99.90;;;;;;4998181;28;20038;-70
2021/08/21 03:09:58;;;;;;;19.05;8.40;;;14.90;99.90;;;;;;4998814;28;20041;-70
2021/08/21 03:12:24;;;;;;;18.63;8.32;;;14.90;99.90;;;;;;4979370;28;20034;-70
2021/08/21 03:14:50;;;;;;;19.35;9.50;;;14.90;99.90;;;;;;4996366;28;20034;-71
2021/08/21 03:17:16;;;;;;;16.58;8.32;;;14.90;99.90;;;;;;5000179;28;20026;-69
2021/08/21 03:19:42;;;;;;;21.58;8.43;;;14.80;99.90;;;;;;5000108;28;20034;-70
2021/08/21 03:22:08;;;;;;;21.40;8.45;;;14.80;99.90;;;;;;4997421;28;20472;-70
2021/08/21 03:24:34;;;;;;;18.27;7.95;;;14.80;99.90;;;;;;4980994;28;20038;-70
2021/08/21 03:27:00;;;;;;;21.42;8.95;;;14.80;99.90;;;;;;4998504;28;20504;-70
2021/08/21 03:29:25;;;;;;;24.42;9.43;;;14.80;99.90;;;;;;4979563;28;20073;-70
2021/08/21 03:31:51;;;;;;;24.00;9.98;;;14.80;99.90;;;;;;5000350;28;20483;-70
2021/08/21 03:34:17;;;;;;;25.33;10.70;;;14.90;99.90;;;;;;4982381;28;20158;-70
2021/08/21 03:36:42;;;;;;;25.13;9.95;;;14.90;99.90;;;;;;4997036;28;20034;-70
2021/08/21 03:39:08;;;;;;;25.42;11.60;;;15.00;99.90;;;;;;5000005;28;20085;-70
2021/08/21 03:41:33;;;;;;;21.55;9.68;;;15.00;99.90;;;;;;5003851;28;20041;-70
2021/08/21 03:43:59;;;;;;;26.73;9.70;;;15.10;99.90;;;;;;4996584;28;20607;-69
2021/08/21 03:46:24;;;;;;;24.48;10.00;;;15.10;99.90;;;;;;4996446;28;20477;-69
2021/08/21 03:48:50;;;;;;;20.95;9.35;;;15.20;99.90;;;;;;4996834;28;20050;-69
2021/08/21 03:51:15;;;;;;;24.00;10.13;;;15.20;99.90;;;;;;4999606;28;20119;-69
2021/08/21 03:53:41;;;;;;;20.10;8.95;;;15.10;99.90;;;;;;4999672;28;20088;-69
2021/08/21 03:56:07;;;;;;;21.75;9.60;;;15.20;99.90;;;;;;5001165;28;20065;-69
2021/08/21 03:58:32;;;;;;;23.50;10.00;;;15.10;99.90;;;;;;5001871;28;20026;-69
2021/08/21 04:00:58;;;;;;;21.75;9.27;;;15.20;99.90;;;;;;4978512;28;20045;-70
2021/08/21 04:03:23;;;;;;;24.40;9.77;;;15.20;99.90;;;;;;4997205;28;20085;-69
2021/08/21 04:05:49;;;;;;;24.15;10.18;;;15.20;99.90;;;;;;4995411;28;20498;-69
2021/08/21 04:08:14;;;;;;;29.85;10.23;;;15.20;99.90;;;;;;4996177;28;20038;-69
2021/08/21 04:10:40;;;;;;;24.08;9.85;;;15.20;99.90;;;;;;4978870;28;20037;-69
2021/08/21 04:13:05;;;;;;;19.73;8.65;;;15.20;99.90;;;;;;4996700;28;20057;-69
2021/08/21 04:15:31;;;;;;;21.63;8.90;;;15.20;99.90;;;;;;4988500;28;20029;-69
2021/08/21 04:17:56;;;;;;;18.70;8.77;;;15.20;99.90;;;;;;5003550;28;20034;-69
2021/08/21 04:20:22;;;;;;;22.42;8.93;;;15.10;99.90;;;;;;4980792;28;20709;-69
2021/08/21 04:22:47;;;;;;;23.65;9.38;;;15.10;99.90;;;;;;5000318;28;20047;-69
2021/08/21 04:25:13;;;;;;;21.88;9.55;;;15.20;99.90;;;;;;5003954;28;20549;-69
2021/08/21 04:27:39;;;;;;;20.15;9.52;;;15.20;99.90;;;;;;5002797;28;20033;-69
2021/08/21 04:30:05;;;;;;;18.25;9.10;;;15.30;99.90;;;;;;5007255;28;20040;-70
2021/08/21 04:32:31;;;;;;;20.98;9.77;;;15.30;99.90;;;;;;5001443;28;20026;-69
2021/08/21 04:34:56;;;;;;;23.60;9.75;;;15.40;99.90;;;;;;5005154;28;20190;-69
2021/08/21 04:37:22;;;;;;;23.55;9.80;;;15.40;99.90;;;;;;5002835;28;20026;-69
2021/08/21 04:39:48;;;;;;;22.55;9.80;;;15.50;99.90;;;;;;5007970;28;20033;-67
2021/08/21 04:42:13;;;;;;;22.20;9.23;;;15.50;99.90;;;;;;4999210;28;20030;-68
2021/08/21 04:44:39;;;;;;;19.20;8.73;;;15.60;99.90;;;;;;5004187;28;20090;-68
2021/08/21 04:47:05;;;;;;;19.60;9.27;;;15.60;99.90;;;;;;4983759;28;20053;-67
2021/08/21 04:49:31;;;;;;;20.70;10.15;;;15.60;99.90;;;;;;4982692;28;20034;-67
2021/08/21 04:51:57;;;;;;;21.83;9.60;;;15.70;99.90;;;;;;5005998;28;20112;-68
2021/08/21 04:54:22;;;;;;;23.48;10.13;;;15.70;99.90;;;;;;5002759;28;20072;-68
2021/08/21 04:56:49;;;;;;;19.52;8.55;;;15.70;99.90;;;;;;4999679;28;20031;-67
2021/08/21 04:59:14;;;;;;;20.83;10.10;;;15.70;99.90;;;;;;4995855;28;20088;-67
2021/08/21 05:01:40;;;;;;;20.05;8.65;;;15.80;99.90;;;;;;5003640;28;20038;-68
2021/08/21 05:04:05;;;;;;;24.35;11.23;;;15.80;99.90;;;;;;5003512;28;20030;-67
2021/08/21 05:06:31;;;;;;;18.33;8.98;;;15.90;99.90;;;;;;5000721;28;20367;-68
2021/08/21 05:08:56;;;;;;;21.05;9.90;;;15.90;99.90;;;;;;5001696;28;20401;-67
2021/08/21 05:11:22;;;;;;;22.75;10.60;;;15.90;99.90;;;;;;4997787;28;20058;-67
2021/08/21 05:13:48;;;;;;;20.65;9.80;;;16.00;99.90;;;;;;4983003;28;20057;-67
2021/08/21 05:16:13;;;;;;;25.17;9.35;;;16.00;99.90;;;;;;5002945;28;20439;-67
2021/08/21 05:18:46;;;;;;;19.98;9.88;;;16.00;99.90;;;;;;5007241;28;20414;-67
2021/08/21 05:21:14;;;;;;;19.73;9.27;;;16.00;99.90;;;;;;5003339;28;20483;-68
2021/08/21 05:23:40;;;;;;;18.83;8.57;;;16.00;99.90;;;;;;4986424;28;20390;-67
2021/08/21 05:26:06;;;;;;;22.15;10.10;;;16.00;99.90;;;;;;5001766;28;20037;-67
2021/08/21 05:28:32;;;;;;;18.02;9.07;;;16.00;99.90;;;;;;4985074;28;20041;-67
2021/08/21 05:30:59;;;;;;;23.15;8.80;;;16.00;99.90;;;;;;5002801;28;20038;-67
2021/08/21 05:33:24;;;;;;;17.45;8.15;;;16.10;99.90;;;;;;5002767;28;20069;-68
2021/08/21 05:35:50;;;;;;;18.35;8.82;;;16.10;99.90;;;;;;4994778;28;20038;-67
2021/08/21 05:38:16;;;;;;;20.92;9.15;;;16.10;99.90;;;;;;5002502;28;20033;-68
2021/08/21 05:40:42;;;;;;;19.65;8.80;;;16.20;99.90;;;;;;4991232;28;20034;-67
2021/08/21 05:43:10;;;;;;;17.05;8.45;;;16.20;99.90;;;;;;4998986;28;20406;-67
2021/08/21 05:45:35;;;;;;;24.23;9.70;;;16.20;99.90;;;;;;4998808;28;20034;-68
2021/08/21 05:48:01;;;;;;;24.98;10.45;;;16.20;99.90;;;;;;5009722;28;20387;-67
2021/08/21 05:50:27;;;;;;;21.35;9.73;;;16.20;99.90;;;;;;5006169;28;20022;-67
2021/08/21 05:52:52;;;;;;;22.58;9.48;;;16.30;99.90;;;;;;5004654;28;20119;-67
2021/08/21 05:55:19;;;;;;;25.05;9.27;;;16.30;99.90;;;;;;5003697;28;20509;-67
2021/08/21 05:57:45;;;;;;;20.85;9.20;;;16.30;99.90;;;;;;4980600;28;20049;-67
2021/08/21 06:00:11;;;;;;;25.98;9.48;;;16.40;99.90;;;;;;5002219;28;20038;-67
2021/08/21 06:02:37;;;;;;;19.17;9.20;;;16.40;99.90;;;;;;4994326;28;20573;-68
2021/08/21 06:05:03;;;;;;;24.27;8.88;;;16.50;99.90;;;;;;5001720;28;20117;-67
2021/08/21 06:07:30;;;;;;;18.90;9.77;;;16.60;99.90;;;;;;4999381;28;20506;-68
2021/08/21 06:09:55;;;;;;;23.75;9.55;;;16.70;99.90;;;;;;5000895;28;20035;-67
2021/08/21 06:12:21;;;;;;;22.60;9.18;;;16.80;99.90;;;;;;5000521;28;20026;-67
2021/08/21 06:14:47;;;;;;;21.02;9.68;;;16.90;99.90;;;;;;4999694;28;20437;-67
2021/08/21 06:17:12;;;;;;;24.45;10.68;;;17.00;99.90;;;;;;5002260;28;20482;-67
2021/08/21 06:19:38;;;;;;;22.15;10.80;;;17.10;99.90;;;;;;4984637;28;20026;-67
2021/08/21 06:22:05;;;;;;;16.45;8.93;;;17.20;99.90;;;;;;5001509;28;20406;-68
2021/08/21 06:24:31;;;;;;;21.23;11.05;;;17.30;99.90;;;;;;4993268;28;20049;-68
2021/08/21 06:26:57;;;;;;;20.83;9.30;;;17.40;99.90;;;;;;5001716;28;20042;-67
2021/08/21 06:29:22;;;;;;;22.35;10.07;;;17.50;99.90;;;;;;5006176;28;20115;-68
2021/08/21 06:31:48;;;;;;;25.40;11.65;;;17.40;99.90;;;;;;4999909;28;20030;-69
2021/08/21 06:34:14;;;;;;;25.10;11.00;;;17.50;99.90;;;;;;5001789;28;20033;-69
2021/08/21 06:36:39;;;;;;;24.27;11.50;;;17.50;99.90;;;;;;5000924;28;20026;-70
2021/08/21 06:39:05;;;;;;;20.52;10.30;;;17.50;99.90;;;;;;5006304;28;20030;-70
2021/08/21 06:41:31;;;;;;;23.55;11.10;;;17.50;99.90;;;;;;5007899;28;20034;-70
2021/08/21 06:43:56;;;;;;;23.42;10.98;;;17.60;99.90;;;;;;5000866;28;20030;-69
2021/08/21 06:46:22;;;;;;;25.10;10.93;;;17.60;99.90;;;;;;5013897;28;20034;-69
2021/08/21 06:48:48;;;;;;;23.95;10.35;;;17.80;99.90;;;;;;5000952;28;20042;-69
2021/08/21 06:51:14;;;;;;;19.42;10.10;;;18.10;99.90;;;;;;4997480;28;20462;-69
2021/08/21 06:53:40;;;;;;;18.52;9.63;;;18.30;99.90;;;;;;4998674;28;20489;-69
2021/08/21 06:56:06;;;;;;;19.27;9.88;;;18.50;99.90;;;;;;5000683;28;20105;-69
2021/08/21 06:58:32;;;;;;;19.13;9.55;;;18.60;99.90;;;;;;4979289;28;20080;-70
2021/08/21 07:00:58;;;;;;;17.15;9.00;;;18.80;99.90;;;;;;5001172;28;20026;-70
2021/08/21 07:03:24;;;;;;;14.65;8.13;;;19.10;99.90;;;;;;4999044;28;20490;-67
2021/08/21 07:05:50;;;;;;;13.95;7.93;;;19.70;99.90;;;;;;4995827;28;20030;-68
2021/08/21 07:08:16;;;;;;;15.55;8.63;;;20.30;99.90;;;;;;4990795;28;20041;-67
2021/08/21 07:10:42;;;;;;;14.07;7.72;;;20.80;99.90;;;;;;4995915;28;20051;-68
2021/08/21 07:13:07;;;;;;;11.98;7.30;;;21.20;99.90;;;;;;5004428;28;20062;-67
2021/08/21 07:15:33;;;;;;;17.23;7.50;;;21.50;99.90;;;;;;4992920;28;20031;-68
2021/08/21 07:17:59;;;;;;;12.20;6.78;;;21.30;99.90;;;;;;4985810;28;20030;-67
2021/08/21 07:20:25;;;;;;;13.95;8.00;;;21.20;99.90;;;;;;4976087;28;20041;-67
2021/08/21 07:22:50;;;;;;;11.10;7.03;;;21.20;99.90;;;;;;5002328;28;20052;-67
2021/08/21 07:25:16;;;;;;;9.90;6.13;;;21.60;99.90;;;;;;4999286;28;20125;-67
2021/08/21 07:27:42;;;;;;;10.75;6.22;;;22.10;99.90;;;;;;4978831;28;20406;-68
2021/08/21 07:30:08;;;;;;;9.80;5.63;;;22.30;99.90;;;;;;4994809;28;20117;-68
2021/08/21 07:32:34;;;;;;;8.48;5.13;;;22.50;99.90;;;;;;4993857;28;20037;-70
2021/08/21 07:35:02;;;;;;;9.20;5.43;;;22.50;99.90;;;;;;4993839;28;20042;-70
2021/08/21 07:37:28;;;;;;;10.98;5.03;;;22.40;99.90;;;;;;4992664;28;20088;-68
2021/08/21 07:39:54;;;;;;;8.18;5.10;;;22.00;99.90;;;;;;5001481;28;20512;-70
2021/08/21 07:42:19;;;;;;;10.60;6.05;;;21.60;99.90;;;;;;4996562;28;20511;-67
2021/08/21 07:44:45;;;;;;;9.65;5.15;;;21.70;99.90;;;;;;5001461;28;20038;-68
2021/08/21 07:47:10;;;;;;;9.45;4.75;;;21.70;99.90;;;;;;5002371;28;20041;-67
2021/08/21 07:49:36;;;;;;;8.85;5.05;;;21.70;99.90;;;;;;4981482;28;20034;-67
2021/08/21 07:52:02;;;;;;;8.80;5.30;;;21.80;99.90;;;;;;4989002;28;20375;-67
2021/08/21 07:54:27;;;;;;;9.13;4.75;;;21.70;99.90;;;;;;4996328;28;20037;-68
2021/08/21 07:56:53;;;;;;;9.63;4.90;;;21.80;99.90;;;;;;5006208;28;20389;-68
2021/08/21 07:59:18;;;;;;;9.07;4.95;;;21.70;99.90;;;;;;5000142;28;20038;-67
2021/08/21 08:01:44;;;;;;;10.07;4.65;;;21.80;99.90;;;;;;5001583;28;20037;-67
2021/08/21 08:04:10;;;;;;;8.23;4.55;;;21.90;99.90;;;;;;4985588;28;20048;-68
2021/08/21 08:06:35;;;;;;;9.32;4.40;;;22.20;99.90;;;;;;5003450;28;20057;-68
2021/08/21 08:09:01;;;;;;;13.40;4.57;;;22.40;99.90;;;;;;5003063;28;20069;-68
2021/08/21 08:11:26;;;;;;;10.30;4.97;;;22.50;99.90;;;;;;4986842;28;20089;-67
2021/08/21 08:13:52;;;;;;;8.32;4.22;;;22.50;99.90;;;;;;5003006;28;20049;-68
2021/08/21 08:16:17;;;;;;;7.38;4.20;;;22.40;99.90;;;;;;5003910;28;20044;-68
2021/08/21 08:18:43;;;;;;;10.75;4.70;;;22.50;99.90;;;;;;5003947;28;20107;-68
2021/08/21 08:21:11;;;;;;;11.88;5.13;;;22.70;99.90;;;;;;4995657;28;20405;-68
2021/08/21 08:23:36;;;;;;;9.77;4.78;;;22.80;99.90;;;;;;4999346;28;20045;-67
2021/08/21 08:26:02;;;;;;;9.77;4.78;;;22.90;99.90;;;;;;4996580;28;20034;-68
2021/08/21 08:28:28;;;;;;;10.50;4.97;;;23.00;99.90;;;;;;5003136;28;20124;-68
2021/08/21 08:30:54;;;;;;;9.48;4.80;;;23.10;99.90;;;;;;5000442;28;20082;-68
2021/08/21 08:33:22;;;;;;;10.82;6.15;;;23.40;99.90;;;;;;5002133;28;20046;-68
2021/08/21 08:35:50;;;;;;;9.50;4.82;;;23.40;99.90;;;;;;5000650;28;20445;-69
2021/08/21 08:38:15;;;;;;;9.77;5.10;;;23.50;99.90;;;;;;4981436;28;20068;-67
2021/08/21 08:40:41;;;;;;;8.77;5.25;;;23.50;99.90;;;;;;4986457;28;20095;-67
2021/08/21 08:43:06;;;;;;;11.95;5.38;;;23.40;99.90;;;;;;4998719;28;20030;-67
2021/08/21 08:45:32;;;;;;;10.50;5.47;;;23.40;99.90;;;;;;5000975;28;20038;-68
2021/08/21 08:47:59;;;;;;;13.07;5.35;;;23.30;99.90;;;;;;5000461;28;20490;-69
2021/08/21 08:50:25;;;;;;;10.40;5.03;;;23.20;99.90;;;;;;5001534;28;20612;-67
2021/08/21 08:52:52;;;;;;;7.22;4.70;;;23.10;99.90;;;;;;5001237;28;20027;-70
2021/08/21 08:55:18;;;;;;;8.35;4.55;;;23.20;99.90;;;;;;5001793;28;20428;-71
2021/08/21 08:57:46;;;;;;;9.02;5.10;;;23.10;99.90;;;;;;5006036;28;20168;-70
2021/08/21 09:00:15;;;;;;;8.85;4.18;;;23.20;99.90;;;;;;4997148;28;20457;-70
2021/08/21 09:02:47;;;;;;;10.65;4.55;;;23.20;99.90;;;;;;5000657;28;20026;-68
2021/08/21 09:05:15;;;;;;;6.55;3.78;;;23.30;99.90;;;;;;4999813;28;20037;-69
2021/08/21 09:07:56;;;;;;;7.05;4.22;;;23.30;99.90;;;;;;5015695;28;20493;-68
2021/08/21 09:10:24;;;;;;;10.00;4.88;;;23.40;99.90;;;;;;5001299;28;20030;-68
2021/08/21 09:13:04;;;;;;;7.13;4.32;;;23.50;99.90;;;;;;5014480;28;20030;-68
2021/08/21 09:15:32;;;;;;;6.97;3.67;;;23.60;99.90;;;;;;4998410;28;20034;-70
2021/08/21 09:18:07;;;;;;;8.60;4.28;;;23.80;99.90;;;;;;4998722;28;20165;-69
2021/08/21 09:20:50;;;;;;;6.80;4.22;;;24.00;99.90;;;;;;4998482;28;20125;-69
2021/08/21 09:23:34;;;;;;;6.32;4.03;;;24.30;99.90;;;;;;4999360;28;20121;-68
2021/08/21 09:26:14;;;;;;;7.70;4.13;;;24.50;99.90;;;;;;4995125;28;20052;-69
2021/08/21 09:28:41;;;;;;;;;;;24.70;99.90;;;;;;5001946;28;20046;-69
2021/08/21 09:31:11;;;;;;;12.15;4.40;;;24.70;99.90;;;;;;5002295;28;19922;-69
2021/08/21 09:33:39;;;;;;;11.38;4.40;;;24.70;99.90;;;;;;5005748;28;20189;-68
2021/08/21 09:36:10;;;;;;;19.65;4.05;;;24.40;99.90;;;;;;5004192;28;20429;-69
2021/08/21 09:38:36;;;;;;;6.22;4.07;;;24.20;99.90;;;;;;5003926;28;20030;-69
2021/08/21 09:41:06;;;;;;;13.70;4.30;;;24.20;99.90;;;;;;5002811;28;20096;-71
2021/08/21 09:43:35;;;;;;;7.40;3.58;;;24.20;99.90;;;;;;5004059;28;20066;-71
2021/08/21 09:46:07;;;;;;;7.53;3.95;;;24.40;99.90;;;;;;5003212;28;20025;-70
2021/08/21 09:48:33;;;;;;;6.80;3.92;;;24.40;99.90;;;;;;4998022;28;20053;-70
2021/08/21 09:50:58;;;;;;;6.90;3.40;;;24.40;99.90;;;;;;5005989;28;20042;-66
2021/08/21 09:53:35;;;;;;;7.55;3.83;;;24.50;99.90;;;;;;4984695;28;20030;-70
2021/08/21 09:56:11;;;;;;;9.65;3.42;;;24.50;99.90;;;;;;4983278;28;20040;-72
2021/08/21 09:58:37;;;;;;;6.72;3.22;;;24.60;99.90;;;;;;5002102;28;20044;-71
2021/08/21 10:01:05;;;;;;;7.47;3.85;;;24.80;99.90;;;;;;5003442;28;20117;-71
2021/08/21 10:03:31;;;;;;;7.70;3.65;;;24.90;99.90;;;;;;5002449;28;20389;-71
2021/08/21 10:05:57;;;;;;;8.82;4.50;;;24.80;99.90;;;;;;5004946;28;20401;-69
2021/08/21 10:08:27;;;;;;;13.52;3.85;;;24.80;99.90;;;;;;5001267;28;20038;-69
2021/08/21 10:10:54;;;;;;;5.30;3.30;;;24.70;99.90;;;;;;5004402;28;20398;-69
2021/08/21 10:13:28;;;;;;;7.38;4.00;;;24.80;99.90;;;;;;5003558;28;20068;-69
2021/08/21 10:15:55;;;;;;;12.00;3.45;;;24.90;99.90;;;;;;5002496;28;20097;-68
2021/08/21 10:18:22;;;;;;;7.25;3.60;;;24.70;99.90;;;;;;5002815;28;20057;-69
2021/08/21 10:20:48;;;;;;;8.40;4.28;;;24.60;99.90;;;;;;4999196;28;20121;-68
2021/08/21 10:23:16;;;;;;;11.13;4.30;;;24.50;99.90;;;;;;4998080;28;20121;-68
2021/08/21 10:26:05;;;;;;;14.02;4.35;;;24.70;99.90;;;;;;4998468;28;20049;-68
2021/08/21 10:28:40;;;;;;;7.80;4.10;;;25.00;99.90;;;;;;4979515;28;20031;-71
2021/08/21 10:31:06;;;;;;;9.82;4.70;;;25.00;99.90;;;;;;4999010;28;20030;-68
2021/08/21 10:33:54;;;;;;;6.57;4.05;;;24.90;99.90;;;;;;4997659;28;20494;-68
2021/08/21 10:36:38;;;;;;;8.00;3.88;;;25.00;99.90;;;;;;4978535;28;20030;-68
2021/08/21 10:39:18;;;;;;;10.40;4.15;;;25.00;99.90;;;;;;4998394;28;20074;-68
2021/08/21 10:41:43;;;;;;;5.90;3.50;;;24.90;99.90;;;;;;5001044;28;20054;-68
2021/08/21 10:44:09;;;;;;;5.70;3.60;;;25.00;99.90;;;;;;4997490;28;20038;-68
2021/08/21 10:46:35;;;;;;;9.45;4.18;;;25.00;99.90;;;;;;4997487;28;20044;-68
2021/08/21 10:49:05;;;;;;;6.75;3.85;;;24.90;99.90;;;;;;4998421;28;20042;-69
2021/08/21 10:51:39;;;;;;;6.20;3.00;;;24.90;99.90;;;;;;5001707;28;20070;-68
2021/08/21 10:54:45;;;;;;;7.95;3.78;;;24.90;99.90;;;;;;4997941;28;20061;-69
2021/08/21 10:57:29;;;;;;;9.40;5.05;;;24.90;99.90;;;;;;4998762;28;20792;-68
2021/08/21 10:59:55;;;;;;;5.90;3.58;;;25.00;99.90;;;;;;4996220;28;20038;-68
2021/08/21 11:02:28;;;;;;;9.40;4.28;;;25.00;99.90;;;;;;4996125;28;20041;-67
2021/08/21 11:04:54;;;;;;;5.50;3.50;;;25.10;99.90;;;;;;4996557;28;20180;-68
2021/08/21 11:07:37;;;;;;;6.68;4.20;;;25.20;99.90;;;;;;4995764;28;20034;-68
2021/08/21 11:10:22;;;;;;;5.53;3.70;;;25.10;99.90;;;;;;4996901;28;20039;-69
2021/08/21 11:12:51;;;;;;;7.70;4.68;;;25.10;99.90;;;;;;4996286;28;20089;-68
2021/08/21 11:15:22;;;;;;;9.45;4.57;;;24.90;99.90;;;;;;4981258;28;20026;-70
2021/08/21 11:17:49;;;;;;;7.50;4.30;;;24.90;99.90;;;;;;4995800;28;20077;-68
2021/08/21 11:20:26;;;;;;;10.73;5.30;;;24.90;99.90;;;;;;4980604;28;20125;-67
2021/08/21 11:23:07;;;;;;;8.13;4.13;;;24.80;99.90;;;;;;4997350;28;20086;-69
2021/08/21 11:25:44;;;;;;;6.72;3.92;;;24.90;99.90;;;;;;4979258;28;20336;-70
2021/08/21 11:28:20;;;;;;;8.45;4.57;;;24.90;99.90;;;;;;4997426;28;20029;-71
2021/08/21 11:31:07;;;;;;;8.73;4.70;;;25.00;99.90;;;;;;4998808;28;20057;-70
2021/08/21 11:33:33;;;;;;;6.90;4.13;;;25.00;99.90;;;;;;4998074;28;20536;-69
2021/08/21 11:36:00;;;;;;;8.98;3.95;;;25.10;99.90;;;;;;5007005;28;20045;-70
2021/08/21 11:38:33;;;;;;;6.15;3.70;;;25.00;99.90;;;;;;5004401;28;20072;-68
2021/08/21 11:41:08;;;;;;;7.05;4.35;;;25.00;99.90;;;;;;5004383;28;20038;-69
2021/08/21 11:43:34;;;;;;;11.60;4.88;;;25.10;99.90;;;;;;5003987;28;20049;-70
2021/08/21 11:46:02;;;;;;;6.72;4.40;;;25.20;99.90;;;;;;5004436;28;20486;-70
2021/08/21 11:48:31;;;;;;;7.63;4.03;;;25.30;99.90;;;;;;4997298;28;20053;-70
2021/08/21 11:50:59;;;;;;;12.93;5.57;;;25.40;99.90;;;;;;5001865;28;20141;-70
2021/08/21 11:53:31;;;;;;;6.82;4.20;;;25.20;99.90;;;;;;4995208;28;20045;-70
2021/08/21 11:55:58;;;;;;;11.18;4.20;;;25.30;99.90;;;;;;4996229;28;20397;-70
2021/08/21 11:58:29;;;;;;;6.50;3.97;;;25.30;99.90;;;;;;4997410;28;20037;-69
2021/08/21 12:00:56;;;;;;;8.43;4.72;;;25.30;99.90;;;;;;4981043;28;20494;-70
2021/08/21 12:03:33;;;;;;;7.18;4.20;;;25.20;99.90;;;;;;4980543;28;20030;-70
2021/08/21 12:05:59;;;;;;;7.68;4.40;;;25.10;99.90;;;;;;4978515;28;20846;-70
2021/08/21 12:08:27;;;;;;;8.20;4.60;;;25.00;99.90;;;;;;4986736;28;20053;-69
2021/08/21 12:10:57;;;;;;;10.82;4.07;;;24.90;99.90;;;;;;5007007;28;20485;-70
2021/08/21 12:13:37;;;;;;;8.13;4.00;;;24.80;99.90;;;;;;5000960;28;20058;-69
2021/08/21 12:16:07;;;;;;;;;;;24.80;99.90;;;;;;4983193;28;20096;-67
2021/08/21 12:18:34;;;;;;;;;;;24.60;99.90;;;;;;4980938;28;20408;-68
2021/08/21 12:21:00;;;;;;;5.75;3.33;;;24.60;99.90;;;;;;5000975;28;19914;-67
2021/08/21 12:23:26;;;;;;;6.85;3.85;;;24.60;99.90;;;;;;4979830;28;20104;-67
2021/08/21 12:25:59;;;;;;;7.78;3.35;;;24.40;99.90;;;;;;4995599;28;20166;-67
2021/08/21 12:28:37;;;;;;;7.10;3.20;;;24.60;99.90;;;;;;5001447;28;20043;-68
2021/08/21 12:31:11;;;;;;;6.88;2.92;;;24.50;99.90;;;;;;4978930;28;20030;-68
2021/08/21 12:33:54;;;;;;;5.13;3.47;;;24.50;99.90;;;;;;4980805;28;20077;-67
2021/08/21 12:36:24;;;;;;;5.95;3.25;;;24.60;99.90;;;;;;5000724;28;20056;-68
2021/08/21 12:39:12;;;;;;;6.75;3.13;;;24.60;99.90;;;;;;5001882;28;20121;-66
2021/08/21 12:42:00;;;;;;;7.32;3.13;;;24.60;99.90;;;;;;4982207;28;20103;-67
2021/08/21 12:44:36;;;;;;;7.43;2.83;;;24.80;99.90;;;;;;4988036;28;20465;-67